North Hudson Marine 1 — WDH6860 — position and weather

sailwx.info

Track history (hours):
 
Tides and Currents Weather Stations Pressure Air Temp Water Temp Dewpoint Dewpoint Depression Visibility Wind Speed Wind Dir Waves Ship Positions

North Hudson Marine 1

Owner: North Hudson Regional Fire & Rescue, West New York, NJ. More information available from US FCC via Universal Licensing System.

Last reported at 2017-Dec-14 16:26 UTC. Time now 2017-Dec-15 04:20 UTC.
Position N 40°46' W 074°01'.

Length 13 m; draft 0.5 m.

Type: SAR. MMSI: 367642340.

Date/timePositionNaut miles runAvg speedWind from/ knotsBaromVisibWave heightAir tempDewpointWater temp
2017-Dec-14 16:26N 40°46' W 074°01'0 0.0
2017-Dec-13 16:50N 40°46' W 074°01'  
2017-Dec-10 16:04N 40°46' W 074°01'0 0.1
2017-Dec-10 16:00N 40°46' W 074°01'0 0.0
2017-Dec-09 23:08N 40°46' W 074°01'0 0.0
2017-Dec-09 22:59N 40°46' W 074°01'0 0.0
2017-Dec-09 15:06N 40°46' W 074°01'0 0.0
2017-Dec-09 15:00N 40°46' W 074°01'0 0.0
2017-Dec-08 22:38N 40°46' W 074°01'0 0.0
2017-Dec-08 20:45N 40°46' W 074°01'1 2.3
2017-Dec-08 20:30N 40°45' W 074°01'3 5.2
2017-Dec-08 20:00N 40°43' W 074°02'3 6.3
2017-Dec-08 19:30N 40°46' W 074°01'1 2.2
2017-Dec-08 19:00N 40°47' W 074°00'3 6.6
2017-Dec-08 18:29N 40°50' W 073°58'0 0.0
2017-Dec-08 18:00N 40°50' W 073°58'0 0.0
2017-Dec-08 16:42N 40°50' W 073°58'1 5.1
2017-Dec-08 16:30N 40°51' W 073°58'4 9.1
2017-Dec-08 16:00N 40°47' W 073°60'0 0.9
2017-Dec-08 15:30N 40°46' W 073°60'1 0.1
2017-Dec-07 20:01N 40°46' W 074°01'0 0.3
2017-Dec-07 20:00N 40°46' W 074°01'0 0.0
2017-Dec-07 19:30N 40°46' W 074°01'  
Track history (hours):
 
Tides and Currents Weather Stations Pressure Air Temp Water Temp Dewpoint Dewpoint Depression Visibility Wind Speed Wind Dir Waves Ship Positions

North Hudson Marine 1

Owner: North Hudson Regional Fire & Rescue, West New York, NJ. More information available from US FCC via Universal Licensing System.

Last reported at 2017-Dec-14 16:26 UTC. Time now 2017-Dec-15 04:20 UTC.
Position N 40°46' W 074°01'.

Length 13 m; draft 0.5 m.

Type: SAR. MMSI: 367642340.

Date/timePositionNaut miles runAvg speedWind from/ knotsBaromVisibWave heightAir tempDewpointWater temp
2017-Dec-14 16:26N 40°46' W 074°01'0 0.0
2017-Dec-13 16:50N 40°46' W 074°01'  
2017-Dec-10 16:04N 40°46' W 074°01'0 0.1
2017-Dec-10 16:00N 40°46' W 074°01'0 0.0
2017-Dec-09 23:08N 40°46' W 074°01'0 0.0
2017-Dec-09 22:59N 40°46' W 074°01'0 0.0
2017-Dec-09 15:06N 40°46' W 074°01'0 0.0
2017-Dec-09 15:00N 40°46' W 074°01'0 0.0
2017-Dec-08 22:38N 40°46' W 074°01'0 0.0
2017-Dec-08 20:45N 40°46' W 074°01'1 2.3
2017-Dec-08 20:30N 40°45' W 074°01'3 5.2
2017-Dec-08 20:00N 40°43' W 074°02'3 6.3
2017-Dec-08 19:30N 40°46' W 074°01'1 2.2
2017-Dec-08 19:00N 40°47' W 074°00'3 6.6
2017-Dec-08 18:29N 40°50' W 073°58'0 0.0
2017-Dec-08 18:00N 40°50' W 073°58'0 0.0
2017-Dec-08 16:42N 40°50' W 073°58'1 5.1
2017-Dec-08 16:30N 40°51' W 073°58'4 9.1
2017-Dec-08 16:00N 40°47' W 073°60'0 0.9
2017-Dec-08 15:30N 40°46' W 073°60'1 0.1
2017-Dec-07 20:01N 40°46' W 074°01'0 0.3
2017-Dec-07 20:00N 40°46' W 074°01'0 0.0
2017-Dec-07 19:30N 40°46' W 074°01'  

Dump ship's entire track history